createdAt,value
2022-08-09T00:01:44.006Z,25.79
2022-08-09T00:04:34.120Z,25.78
2022-08-09T00:07:03.292Z,25.37
2022-08-09T00:09:35.615Z,25.75
2022-08-09T00:12:05.541Z,25.75
2022-08-09T00:14:38.079Z,25.75
2022-08-09T00:17:07.742Z,25.73
2022-08-09T00:19:36.146Z,25.69
2022-08-09T00:22:04.313Z,25.70
2022-08-09T00:24:32.499Z,25.70
2022-08-09T00:27:00.241Z,25.69
2022-08-09T00:30:10.091Z,25.65
2022-08-09T00:32:26.680Z,25.64
2022-08-09T00:34:54.994Z,25.65
2022-08-09T00:37:22.700Z,25.65
2022-08-09T00:40:09.638Z,25.64
2022-08-09T00:44:19.800Z,25.63
2022-08-09T00:45:27.897Z,25.61
2022-08-09T00:47:56.948Z,25.61
2022-08-09T00:50:24.901Z,25.60
2022-08-09T00:52:54.958Z,25.59
2022-08-09T00:56:03.342Z,25.59
2022-08-09T00:58:14.715Z,25.56
2022-08-09T01:00:50.457Z,25.56
2022-08-09T01:03:23.447Z,25.45
2022-08-09T01:05:58.410Z,25.14
2022-08-09T01:08:40.500Z,25.50
2022-08-09T01:11:26.617Z,25.52
2022-08-09T01:14:00.245Z,25.49
2022-08-09T01:16:33.200Z,25.17
2022-08-09T01:19:17.173Z,25.46
2022-08-09T01:22:12.287Z,25.46
2022-08-09T01:24:52.175Z,25.41
2022-08-09T01:27:21.383Z,25.36
2022-08-09T01:29:55.148Z,24.95
2022-08-09T01:32:31.908Z,25.39
2022-08-09T01:35:18.303Z,25.38
2022-08-09T01:38:09.630Z,25.36
2022-08-09T01:40:39.913Z,25.36
2022-08-09T01:43:08.954Z,25.35
2022-08-09T01:45:45.962Z,25.34
2022-08-09T01:48:15.889Z,25.01
2022-08-09T01:50:44.066Z,25.34
2022-08-09T01:53:19.267Z,25.33
2022-08-09T01:55:47.687Z,24.23
2022-08-09T01:58:16.908Z,24.88
2022-08-09T02:00:46.247Z,25.27
2022-08-09T02:03:18.103Z,25.25
2022-08-09T02:06:03.861Z,24.94
2022-08-09T02:08:39.346Z,25.20
2022-08-09T02:11:21.272Z,24.68
2022-08-09T02:14:06.586Z,25.19
2022-08-09T02:16:59.792Z,25.03
2022-08-09T02:19:24.592Z,24.87
2022-08-09T02:22:10.241Z,24.75
2022-08-09T02:24:38.246Z,25.14
2022-08-09T02:27:08.501Z,25.02
2022-08-09T02:29:38.019Z,25.10
2022-08-09T02:32:08.876Z,25.09
2022-08-09T02:34:41.696Z,25.00
2022-08-09T02:37:22.494Z,25.10
2022-08-09T02:40:01.745Z,25.08
2022-08-09T02:42:32.821Z,24.70
2022-08-09T02:45:04.059Z,25.03
2022-08-09T02:47:57.624Z,25.03
2022-08-09T02:50:24.369Z,24.67
2022-08-09T02:52:57.868Z,25.01
2022-08-09T02:55:46.619Z,25.01
2022-08-09T02:58:37.008Z,24.65
2022-08-09T03:01:04.499Z,24.68
2022-08-09T03:03:37.180Z,24.97
2022-08-09T03:06:21.707Z,24.95
2022-08-09T03:08:49.533Z,24.59
2022-08-09T03:11:29.953Z,24.93
2022-08-09T03:14:06.528Z,24.90
2022-08-09T03:16:41.426Z,24.29
2022-08-09T03:19:14.559Z,24.89
2022-08-09T03:21:57.792Z,24.87
2022-08-09T03:24:42.754Z,24.70
2022-08-09T03:27:13.288Z,24.35
2022-08-09T03:29:58.065Z,24.36
2022-08-09T03:32:31.029Z,24.83
2022-08-09T03:34:59.071Z,24.82
2022-08-09T03:37:55.472Z,24.80
2022-08-09T03:40:14.541Z,24.78
2022-08-09T03:42:45.715Z,24.78
2022-08-09T03:45:15.532Z,24.75
2022-08-09T03:47:46.347Z,24.69
2022-08-09T03:50:14.666Z,24.70
2022-08-09T03:52:55.897Z,24.70
2022-08-09T03:55:25.286Z,24.67
2022-08-09T03:58:09.704Z,23.99
2022-08-09T04:00:41.989Z,24.65
2022-08-09T04:03:11.734Z,24.65
2022-08-09T04:05:43.386Z,24.63
2022-08-09T04:08:12.775Z,24.62
2022-08-09T04:10:41.004Z,24.61
2022-08-09T04:13:11.490Z,24.60
2022-08-09T04:16:17.493Z,24.59
2022-08-09T04:18:28.862Z,24.58
2022-08-09T04:20:56.595Z,24.58
2022-08-09T04:23:25.764Z,23.93
2022-08-09T04:25:54.055Z,24.56
2022-08-09T04:28:31.870Z,24.57
2022-08-09T04:31:08.270Z,24.56
2022-08-09T04:33:52.591Z,24.21
2022-08-09T04:36:25.844Z,24.42
2022-08-09T04:38:53.781Z,24.54
2022-08-09T04:41:23.706Z,24.53
2022-08-09T04:44:05.031Z,24.53
2022-08-09T04:46:56.935Z,24.52
2022-08-09T04:49:40.460Z,24.50
2022-08-09T04:52:10.708Z,24.43
2022-08-09T04:54:39.085Z,24.42
2022-08-09T04:57:10.093Z,24.39
2022-08-09T04:59:40.191Z,24.39
2022-08-09T05:02:07.918Z,24.39
2022-08-09T05:04:37.376Z,24.38
2022-08-09T05:07:06.174Z,24.35
2022-08-09T05:09:45.252Z,24.36
2022-08-09T05:12:17.656Z,24.37
2022-08-09T05:14:46.261Z,24.36
2022-08-09T05:18:37.416Z,24.36
2022-08-09T05:20:03.019Z,24.39
2022-08-09T05:22:36.044Z,24.39
2022-08-09T05:25:18.500Z,24.37
2022-08-09T05:27:47.855Z,24.40
2022-08-09T05:30:17.762Z,24.40
2022-08-09T05:32:50.776Z,24.15
2022-08-09T05:35:22.123Z,24.39
2022-08-09T05:37:51.041Z,24.42
2022-08-09T05:40:19.774Z,24.46
2022-08-09T05:42:49.672Z,24.48
2022-08-09T05:45:17.456Z,24.49
2022-08-09T05:47:52.377Z,24.53
2022-08-09T05:50:44.139Z,24.56
2022-08-09T05:53:11.637Z,24.54
2022-08-09T05:55:50.725Z,24.56
2022-08-09T05:58:20.888Z,24.52
2022-08-09T06:00:49.416Z,24.59
2022-08-09T06:03:20.158Z,24.64
2022-08-09T06:06:04.301Z,24.67
2022-08-09T06:08:34.264Z,24.69
2022-08-09T06:11:16.384Z,24.70
2022-08-09T06:13:44.833Z,24.70
2022-08-09T06:16:14.933Z,24.70
2022-08-09T06:18:44.107Z,24.72
2022-08-09T06:21:16.199Z,24.76
2022-08-09T06:23:58.483Z,24.77
2022-08-09T06:26:30.369Z,24.69
2022-08-09T06:29:04.740Z,24.22
2022-08-09T06:31:39.842Z,24.60
2022-08-09T06:34:22.848Z,24.50
2022-08-09T06:36:57.462Z,24.43
2022-08-09T06:39:49.134Z,24.33
2022-08-09T06:42:16.567Z,24.32
2022-08-09T06:44:47.640Z,24.27
2022-08-09T06:47:22.208Z,24.26
2022-08-09T06:50:11.364Z,23.90
2022-08-09T06:52:47.003Z,24.25
2022-08-09T06:55:16.645Z,24.28
2022-08-09T06:58:02.993Z,24.25
2022-08-09T07:00:54.991Z,24.02
2022-08-09T07:03:19.680Z,24.28
2022-08-09T07:06:04.643Z,24.28
2022-08-09T07:08:37.206Z,24.27
2022-08-09T07:11:06.573Z,24.11
2022-08-09T07:13:44.899Z,23.96
2022-08-09T07:16:42.522Z,23.50
2022-08-09T07:19:15.603Z,23.45
2022-08-09T07:21:55.194Z,23.21
2022-08-09T07:24:32.624Z,23.62
2022-08-09T07:27:10.812Z,23.61
2022-08-09T07:29:57.014Z,23.49
2022-08-09T07:32:33.158Z,23.38
2022-08-09T07:35:10.346Z,23.51
2022-08-09T07:37:43.223Z,23.56
2022-08-09T07:40:17.499Z,23.72
2022-08-09T07:42:50.634Z,23.75
2022-08-09T07:45:38.285Z,23.89
2022-08-09T07:48:25.604Z,24.06
2022-08-09T07:51:10.308Z,24.01
2022-08-09T07:54:04.388Z,24.13
2022-08-09T07:56:34.175Z,24.03
2022-08-09T07:59:02.104Z,24.34
2022-08-09T08:01:33.035Z,24.44
2022-08-09T08:04:02.159Z,24.56
2022-08-09T08:06:32.223Z,24.62
2022-08-09T08:09:04.863Z,24.68
2022-08-09T08:12:25.062Z,24.71
2022-08-09T08:14:26.032Z,24.73
2022-08-09T08:17:07.466Z,24.57
2022-08-09T08:19:35.712Z,24.65
2022-08-09T08:22:03.469Z,24.70
2022-08-09T08:24:40.244Z,24.74
2022-08-09T08:27:16.667Z,24.51
2022-08-09T08:29:49.813Z,24.80
2022-08-09T08:32:24.206Z,24.53
2022-08-09T08:34:58.587Z,24.90
2022-08-09T08:37:41.262Z,24.93
2022-08-09T08:40:11.160Z,24.49
2022-08-09T08:42:40.195Z,24.99
2022-08-09T08:45:13.876Z,25.02
2022-08-09T08:47:42.861Z,25.12
2022-08-09T08:50:15.453Z,25.24
2022-08-09T08:53:00.554Z,25.29
2022-08-09T08:55:28.803Z,25.31
2022-08-09T08:58:01.350Z,25.32
2022-08-09T09:00:34.659Z,25.33
2022-08-09T09:03:12.166Z,25.36
2022-08-09T09:06:03.044Z,25.42
2022-08-09T09:08:40.750Z,25.11
2022-08-09T09:11:13.595Z,25.52
2022-08-09T09:13:57.165Z,25.60
2022-08-09T09:16:30.787Z,25.59
2022-08-09T09:22:00.717Z,24.99
2022-08-09T09:24:32.567Z,25.30
2022-08-09T09:27:01.060Z,25.41
2022-08-09T09:29:51.570Z,25.44
2022-08-09T09:32:34.461Z,25.17
2022-08-09T09:35:09.116Z,25.57
2022-08-09T09:37:37.793Z,25.62
2022-08-09T09:40:09.876Z,25.66
2022-08-09T09:42:39.378Z,25.69
2022-08-09T09:45:26.527Z,25.69
2022-08-09T09:47:58.713Z,25.74
2022-08-09T09:50:42.168Z,25.76
2022-08-09T09:53:20.314Z,25.90
2022-08-09T09:55:57.718Z,25.54
2022-08-09T09:58:45.321Z,26.02
2022-08-09T10:01:31.073Z,26.10
2022-08-09T10:04:08.872Z,26.20
2022-08-09T10:06:42.725Z,26.19
2022-08-09T10:09:22.682Z,26.27
2022-08-09T10:12:11.404Z,26.24
2022-08-09T10:14:40.350Z,26.24
2022-08-09T10:17:39.854Z,26.28
2022-08-09T10:20:06.559Z,26.35
2022-08-09T10:22:42.828Z,26.45
2022-08-09T10:25:14.339Z,26.49
2022-08-09T10:27:54.516Z,26.00
2022-08-09T10:33:29.886Z,26.42
2022-08-09T10:36:03.077Z,26.50
2022-08-09T10:38:34.062Z,26.50
2022-08-09T10:41:20.719Z,26.51
2022-08-09T10:43:59.843Z,26.51
2022-08-09T10:46:57.550Z,26.55
2022-08-09T10:49:50.034Z,26.62
2022-08-09T10:52:28.679Z,26.48
2022-08-09T10:54:56.456Z,26.51
2022-08-09T10:57:24.258Z,26.49
2022-08-09T10:59:58.142Z,26.13
2022-08-09T11:03:16.563Z,26.57
2022-08-09T11:05:30.107Z,26.60
2022-08-09T11:07:59.501Z,26.62
2022-08-09T11:10:56.347Z,26.67
2022-08-09T11:13:50.220Z,26.65
2022-08-09T11:16:39.251Z,26.68
2022-08-09T11:19:10.704Z,26.68
2022-08-09T11:22:16.689Z,26.70
2022-08-09T11:25:08.456Z,26.68
2022-08-09T11:28:02.580Z,26.70
2022-08-09T11:30:34.581Z,26.75
2022-08-09T11:33:05.684Z,26.71
2022-08-09T11:35:49.649Z,26.73
2022-08-09T11:38:22.377Z,26.43
2022-08-09T11:40:56.204Z,26.85
2022-08-09T11:43:41.043Z,26.89
2022-08-09T11:46:08.838Z,26.86
2022-08-09T11:48:47.791Z,26.82
2022-08-09T11:53:16.695Z,26.36
2022-08-09T11:54:27.990Z,26.78
2022-08-09T11:57:47.025Z,26.77
2022-08-09T12:00:24.285Z,26.95
2022-08-09T12:02:55.626Z,27.02
2022-08-09T12:05:23.639Z,27.03
2022-08-09T12:07:52.761Z,26.95
2022-08-09T12:10:38.402Z,26.95
2022-08-09T12:14:07.918Z,27.04
2022-08-09T12:16:00.450Z,27.03
2022-08-09T12:18:30.989Z,26.98
2022-08-09T12:21:02.848Z,26.50
2022-08-09T12:23:58.039Z,26.94
2022-08-09T12:26:26.377Z,27.00
2022-08-09T12:29:14.069Z,27.02
2022-08-09T12:31:58.634Z,26.96
2022-08-09T12:34:33.898Z,26.95
2022-08-09T12:37:09.775Z,26.95
2022-08-09T12:40:00.927Z,26.95
2022-08-09T12:42:30.745Z,26.94
2022-08-09T12:44:59.327Z,27.03
2022-08-09T12:47:27.765Z,27.25
2022-08-09T12:50:19.806Z,27.38
2022-08-09T12:53:09.130Z,27.57
2022-08-09T12:56:14.283Z,27.73
2022-08-09T12:58:29.313Z,28.00
2022-08-09T13:00:57.748Z,28.31
2022-08-09T13:03:54.116Z,28.52
2022-08-09T13:06:25.895Z,28.70
2022-08-09T13:09:06.257Z,28.83
2022-08-09T13:11:34.898Z,28.88
2022-08-09T13:14:41.855Z,28.79
2022-08-09T13:17:01.954Z,28.92
2022-08-09T13:20:07.557Z,28.52
2022-08-09T13:22:36.906Z,28.90
2022-08-09T13:25:07.832Z,28.90
2022-08-09T13:27:54.514Z,28.67
2022-08-09T13:30:49.388Z,28.56
2022-08-09T13:33:17.237Z,28.72
2022-08-09T13:36:24.806Z,28.62
2022-08-09T13:38:56.595Z,28.60
2022-08-09T13:41:59.441Z,28.72
2022-08-09T13:44:13.467Z,28.90
2022-08-09T13:47:26.650Z,28.79
2022-08-09T13:49:38.123Z,28.97
2022-08-09T13:52:11.393Z,28.99
2022-08-09T13:54:59.420Z,28.99
2022-08-09T13:57:37.096Z,29.03
2022-08-09T14:00:10.611Z,28.94
2022-08-09T14:03:04.082Z,29.05
2022-08-09T14:05:57.049Z,29.01
2022-08-09T14:08:17.901Z,29.08
2022-08-09T14:10:51.853Z,29.12
2022-08-09T14:14:16.060Z,28.77
2022-08-09T14:16:15.113Z,28.83
2022-08-09T14:18:49.345Z,29.09
2022-08-09T14:21:18.828Z,28.93
2022-08-09T14:23:55.302Z,29.11
2022-08-09T14:26:30.436Z,29.10
2022-08-09T14:29:02.186Z,29.09
2022-08-09T14:31:50.260Z,29.05
2022-08-09T14:34:31.537Z,29.10
2022-08-09T14:37:00.804Z,29.09
2022-08-09T14:39:40.068Z,29.14
2022-08-09T14:42:08.538Z,29.12
2022-08-09T14:44:48.659Z,29.19
2022-08-09T14:47:41.214Z,29.20
2022-08-09T14:50:13.015Z,29.21
2022-08-09T14:52:47.779Z,29.26
2022-08-09T14:55:19.947Z,29.29
2022-08-09T14:57:48.992Z,29.33
2022-08-09T15:00:17.077Z,29.30
2022-08-09T15:02:47.119Z,29.31
2022-08-09T15:05:17.122Z,29.34
2022-08-09T15:07:45.332Z,29.37
2022-08-09T15:10:24.869Z,29.39
2022-08-09T15:12:53.098Z,29.42
2022-08-09T15:15:21.187Z,29.45
2022-08-09T15:17:52.377Z,29.40
2022-08-09T15:21:57.533Z,29.52
2022-08-09T15:24:01.493Z,29.52
2022-08-09T15:25:58.699Z,29.52
2022-08-09T15:28:28.295Z,29.30
2022-08-09T15:31:08.724Z,29.59
2022-08-09T15:34:17.463Z,29.61
2022-08-09T15:36:30.005Z,29.65
2022-08-09T15:38:58.714Z,29.66
2022-08-09T15:41:32.140Z,29.67
2022-08-09T15:44:01.951Z,29.67
2022-08-09T15:46:33.788Z,29.72
2022-08-09T15:49:22.014Z,29.75
2022-08-09T15:52:05.258Z,29.63
2022-08-09T15:54:51.440Z,29.81
2022-08-09T15:57:35.371Z,29.83
2022-08-09T16:00:14.305Z,29.50
2022-08-09T16:02:43.259Z,29.85
2022-08-09T16:05:22.040Z,29.90
2022-08-09T16:07:51.347Z,29.92
2022-08-09T16:10:55.489Z,29.80
2022-08-09T16:13:18.459Z,29.95
2022-08-09T16:16:11.130Z,29.92
2022-08-09T16:18:36.670Z,29.99
2022-08-09T16:21:17.224Z,30.02
2022-08-09T16:23:58.442Z,30.04
2022-08-09T16:26:33.918Z,30.05
2022-08-09T16:29:10.812Z,30.06
2022-08-09T16:32:20.234Z,30.06
2022-08-09T16:34:28.744Z,30.06
2022-08-09T16:36:57.046Z,30.07
2022-08-09T16:39:26.510Z,30.09
2022-08-09T16:42:03.072Z,30.01
2022-08-09T16:44:32.707Z,30.09
2022-08-09T16:47:04.178Z,30.11
2022-08-09T16:50:30.012Z,30.12
2022-08-09T16:52:36.221Z,30.12
2022-08-09T16:55:08.100Z,30.13
2022-08-09T16:58:08.842Z,30.14
2022-08-09T17:00:31.265Z,30.13
2022-08-09T17:02:59.124Z,30.15
2022-08-09T17:06:06.531Z,30.15
2022-08-09T17:08:47.089Z,30.17
2022-08-09T17:11:03.729Z,30.15
2022-08-09T17:13:34.359Z,30.19
2022-08-09T17:16:02.668Z,30.19
2022-08-09T17:18:30.546Z,30.19
2022-08-09T17:20:58.648Z,30.19
2022-08-09T17:24:20.196Z,30.23
2022-08-09T17:26:17.682Z,30.24
2022-08-09T17:28:59.954Z,30.26
2022-08-09T17:31:29.801Z,30.28
2022-08-09T17:34:06.445Z,30.28
2022-08-09T17:36:54.153Z,30.29
2022-08-09T17:39:25.154Z,30.28
2022-08-09T17:42:10.950Z,30.30
2022-08-09T17:44:58.675Z,30.29
2022-08-09T17:47:28.941Z,30.28
2022-08-09T17:50:07.428Z,30.28
2022-08-09T17:52:41.944Z,30.24
2022-08-09T17:55:16.840Z,30.20
2022-08-09T17:58:03.466Z,30.19
2022-08-09T18:00:44.185Z,30.12
2022-08-09T18:03:18.007Z,30.03
2022-08-09T18:05:52.936Z,29.97
2022-08-09T18:08:22.303Z,29.91
2022-08-09T18:11:01.764Z,29.84
2022-08-09T18:13:54.436Z,29.78
2022-08-09T18:16:29.320Z,29.68
2022-08-09T18:18:57.513Z,29.64
2022-08-09T18:21:27.416Z,29.58
2022-08-09T18:24:10.067Z,29.54
2022-08-09T18:26:46.412Z,29.48
2022-08-09T18:30:42.195Z,29.45
2022-08-09T18:34:28.918Z,29.31
2022-08-09T18:36:56.653Z,29.27
2022-08-09T18:39:25.677Z,29.24
2022-08-09T18:42:01.070Z,29.20
2022-08-09T18:44:30.267Z,29.16
2022-08-09T18:47:04.824Z,29.14
2022-08-09T18:49:41.414Z,29.06
2022-08-09T18:52:12.084Z,29.05
2022-08-09T18:54:49.722Z,29.01
2022-08-09T18:57:21.929Z,28.98
2022-08-09T18:59:55.618Z,28.93
2022-08-09T19:02:32.285Z,28.88
2022-08-09T19:05:14.872Z,28.86
2022-08-09T19:08:04.052Z,28.81
2022-08-09T19:10:37.004Z,28.75
2022-08-09T19:13:22.503Z,28.73
2022-08-09T19:15:52.871Z,28.70
2022-08-09T19:18:33.755Z,28.64
2022-08-09T19:21:05.223Z,28.61
2022-08-09T19:24:33.049Z,28.59
2022-08-09T19:26:29.158Z,28.55
2022-08-09T19:29:01.942Z,28.52
2022-08-09T19:31:45.274Z,28.49
2022-08-09T19:34:21.387Z,28.44
2022-08-09T19:36:51.572Z,28.43
2022-08-09T19:39:20.745Z,28.39
2022-08-09T19:41:57.191Z,28.36
2022-08-09T19:44:25.492Z,28.31
2022-08-09T19:46:54.546Z,28.31
2022-08-09T19:50:48.986Z,28.01
2022-08-09T19:52:12.205Z,28.25
2022-08-09T19:54:40.591Z,28.23
2022-08-09T19:57:09.301Z,28.22
2022-08-09T19:59:57.701Z,28.18
2022-08-09T20:04:11.168Z,28.15
2022-08-09T20:05:14.838Z,28.12
2022-08-09T20:07:59.136Z,28.09
2022-08-09T20:10:36.327Z,28.08
2022-08-09T20:13:05.355Z,28.04
2022-08-09T20:16:37.975Z,27.95
2022-08-09T20:18:23.151Z,28.00
2022-08-09T20:20:55.953Z,27.96
2022-08-09T20:23:24.369Z,27.95
2022-08-09T20:26:07.226Z,27.89
2022-08-09T20:28:48.191Z,27.90
2022-08-09T20:31:17.658Z,27.87
2022-08-09T20:33:52.372Z,27.85
2022-08-09T20:36:27.317Z,27.82
2022-08-09T20:39:29.213Z,27.81
2022-08-09T20:41:42.971Z,27.79
2022-08-09T20:44:10.809Z,27.77
2022-08-09T20:46:43.147Z,27.77
2022-08-09T20:49:15.771Z,27.75
2022-08-09T20:51:44.085Z,27.72
2022-08-09T20:54:16.844Z,27.70
2022-08-09T20:56:46.655Z,27.68
2022-08-09T20:59:16.858Z,27.62
2022-08-09T21:01:49.872Z,27.63
2022-08-09T21:05:50.729Z,27.62
2022-08-09T21:07:11.770Z,27.61
2022-08-09T21:09:55.607Z,27.58
2022-08-09T21:15:13.886Z,27.53
2022-08-09T21:18:11.207Z,27.52
2022-08-09T21:20:31.120Z,27.50
2022-08-09T21:22:59.315Z,27.47
2022-08-09T21:25:55.744Z,27.46
2022-08-09T21:28:33.827Z,27.43
2022-08-09T21:31:19.356Z,27.42
2022-08-09T21:33:50.568Z,27.36
2022-08-09T21:36:23.598Z,27.35
2022-08-09T21:38:57.943Z,27.36
2022-08-09T21:42:04.265Z,27.34
2022-08-09T21:44:15.481Z,27.32
2022-08-09T21:47:00.815Z,27.31
2022-08-09T21:49:29.509Z,27.30
2022-08-09T21:52:16.743Z,27.28
2022-08-09T21:54:46.258Z,27.26
2022-08-09T21:57:36.800Z,27.25
2022-08-09T22:00:01.917Z,27.22
2022-08-09T22:02:36.858Z,27.22
2022-08-09T22:05:17.087Z,27.19
2022-08-09T22:07:53.391Z,26.96
2022-08-09T22:10:23.170Z,27.16
2022-08-09T22:12:52.087Z,27.14
2022-08-09T22:15:20.634Z,26.88
2022-08-09T22:17:51.224Z,26.67
2022-08-09T22:20:21.798Z,27.10
2022-08-09T22:22:56.672Z,27.06
2022-08-09T22:26:07.646Z,27.05
2022-08-09T22:28:12.467Z,27.04
2022-08-09T22:30:48.517Z,27.04
2022-08-09T22:33:17.419Z,27.02
2022-08-09T22:36:02.365Z,27.01
2022-08-09T22:38:32.695Z,26.98
2022-08-09T22:41:00.910Z,26.97
2022-08-09T22:44:02.797Z,26.87
2022-08-09T22:48:14.133Z,26.95
2022-08-09T22:49:10.075Z,26.67
2022-08-09T22:51:39.401Z,26.90
2022-08-09T22:54:12.627Z,26.90
2022-08-09T22:56:41.745Z,26.87
2022-08-09T22:59:55.978Z,26.67
2022-08-09T23:01:57.253Z,26.84
2022-08-09T23:04:25.500Z,26.83
2022-08-09T23:07:11.361Z,26.34
2022-08-09T23:09:43.065Z,26.79
2022-08-09T23:12:10.788Z,26.77
2022-08-09T23:14:42.498Z,26.77
2022-08-09T23:17:10.529Z,26.76
2022-08-09T23:20:06.811Z,26.75
2022-08-09T23:22:26.080Z,26.73
2022-08-09T23:24:55.138Z,26.73
2022-08-09T23:27:22.846Z,26.71
2022-08-09T23:29:50.562Z,26.69
2022-08-09T23:32:18.276Z,26.66
2022-08-09T23:34:46.156Z,26.64
2022-08-09T23:37:13.887Z,26.64
2022-08-09T23:39:45.461Z,26.63
2022-08-09T23:42:14.545Z,26.61
2022-08-09T23:44:42.253Z,26.59
2022-08-09T23:47:09.976Z,26.57
2022-08-09T23:49:37.669Z,26.56
2022-08-09T23:52:05.763Z,26.54
2022-08-09T23:54:33.469Z,26.54
2022-08-09T23:57:03.345Z,26.48
2022-08-09T23:59:47.398Z,26.49
